createdAt,value
2019-04-23T00:01:08.905Z,50.27
2019-04-23T00:03:30.570Z,50.42
2019-04-23T00:06:08.532Z,50.92
2019-04-23T00:08:36.543Z,50.71
2019-04-23T00:11:09.929Z,50.71
2019-04-23T00:13:37.119Z,50.84
2019-04-23T00:18:42.265Z,51.37
2019-04-23T00:21:20.692Z,51.65
2019-04-23T00:24:03.079Z,51.69
2019-04-23T00:26:30.657Z,51.68
2019-04-23T00:28:58.873Z,51.81
2019-04-23T00:31:35.067Z,51.85
2019-04-23T00:34:01.118Z,52.08
2019-04-23T00:36:47.610Z,52.21
2019-04-23T00:39:17.348Z,52.15
2019-04-23T00:41:36.252Z,52.25
2019-04-23T00:44:09.226Z,52.70
2019-04-23T00:51:48.253Z,52.91
2019-04-23T00:54:24.086Z,53.03
2019-04-23T00:59:23.213Z,53.47
2019-04-23T01:01:56.908Z,53.37
2019-04-23T01:04:27.411Z,53.34
2019-04-23T01:07:02.550Z,53.67
2019-04-23T01:09:39.025Z,53.75
2019-04-23T01:12:06.094Z,53.89
2019-04-23T01:14:33.913Z,53.86
2019-04-23T01:17:11.379Z,54.19
2019-04-23T01:19:58.022Z,54.28
2019-04-23T01:22:06.466Z,54.32
2019-04-23T01:25:08.763Z,54.52
2019-04-23T01:30:34.373Z,54.67
2019-04-23T01:33:03.873Z,54.61
2019-04-23T01:35:36.030Z,54.74
2019-04-23T01:38:06.141Z,54.66
2019-04-23T01:43:08.004Z,54.82
2019-04-23T01:45:34.307Z,54.99
2019-04-23T01:48:12.871Z,55.12
2019-04-23T01:50:57.596Z,55.39
2019-04-23T01:53:19.490Z,55.50
2019-04-23T01:55:54.470Z,55.42
2019-04-23T01:58:40.277Z,55.70
2019-04-23T02:01:00.726Z,55.83
2019-04-23T02:03:34.500Z,56.25
2019-04-23T02:08:32.333Z,56.35
2019-04-23T02:11:19.969Z,56.73
2019-04-23T02:13:38.358Z,56.43
2019-04-23T02:16:25.887Z,56.93
2019-04-23T02:18:43.927Z,56.54
2019-04-23T02:21:13.660Z,56.77
2019-04-23T02:23:47.958Z,56.70
2019-04-23T02:26:26.358Z,56.66
2019-04-23T02:29:06.710Z,56.91
2019-04-23T02:34:14.339Z,56.66
2019-04-23T02:36:39.972Z,56.87
2019-04-23T02:39:13.034Z,56.96
2019-04-23T02:46:56.799Z,57.40
2019-04-23T02:51:51.006Z,57.19
2019-04-23T02:56:51.518Z,57.27
2019-04-23T02:59:32.694Z,57.26
2019-04-23T03:02:12.021Z,57.38
2019-04-23T03:07:01.353Z,57.32
2019-04-23T03:09:43.213Z,57.54
2019-04-23T03:12:05.874Z,57.56
2019-04-23T03:14:34.328Z,57.69
2019-04-23T03:17:03.428Z,58.27
2019-04-23T03:20:15.821Z,58.50
2019-04-23T03:22:58.958Z,58.21
2019-04-23T03:25:36.223Z,58.50
2019-04-23T03:28:23.055Z,58.50
2019-04-23T03:38:43.420Z,59.29
2019-04-23T03:41:15.727Z,59.12
2019-04-23T03:43:38.968Z,58.99
2019-04-23T03:46:16.354Z,59.05
2019-04-23T03:48:54.869Z,59.28
2019-04-23T03:51:16.680Z,59.17
2019-04-23T03:53:52.281Z,59.17
2019-04-23T03:56:22.393Z,59.17
2019-04-23T03:58:47.400Z,59.35
2019-04-23T04:09:14.916Z,59.81
2019-04-23T04:11:25.480Z,60.26
2019-04-23T04:16:51.775Z,60.40
2019-04-23T04:22:04.753Z,60.35
2019-04-23T04:29:40.358Z,60.87
2019-04-23T04:32:00.350Z,60.78
2019-04-23T04:39:44.431Z,61.05
2019-04-23T04:42:28.545Z,60.78
2019-04-23T04:47:19.808Z,60.52
2019-04-23T04:54:44.417Z,60.46
2019-04-23T05:00:06.758Z,60.57
2019-04-23T05:05:46.321Z,60.50
2019-04-23T05:12:45.268Z,59.85
2019-04-23T05:18:00.024Z,59.28
2019-04-23T05:23:09.193Z,59.84
2019-04-23T05:25:17.978Z,59.53
2019-04-23T05:28:02.844Z,59.08
2019-04-23T05:33:07.953Z,58.93
2019-04-23T05:36:02.034Z,58.66
2019-04-23T05:40:44.964Z,58.51
2019-04-23T05:43:15.858Z,58.40
2019-04-23T05:45:41.363Z,58.18
2019-04-23T05:48:21.560Z,58.25
2019-04-23T05:50:59.279Z,58.03
2019-04-23T05:53:18.603Z,57.87
2019-04-23T05:55:56.828Z,58.07
2019-04-23T05:58:31.521Z,57.96
2019-04-23T06:09:20.384Z,56.95
2019-04-23T06:11:58.594Z,56.70
2019-04-23T06:14:41.061Z,56.65
2019-04-23T06:17:00.477Z,56.55
2019-04-23T06:19:45.963Z,56.29
2019-04-23T06:22:26.853Z,55.91
2019-04-23T06:24:32.995Z,55.61
2019-04-23T06:27:06.721Z,55.40
2019-04-23T06:29:50.145Z,55.19
2019-04-23T06:32:06.523Z,55.00
2019-04-23T06:34:43.550Z,54.64
2019-04-23T06:37:24.480Z,54.50
2019-04-23T06:42:14.462Z,54.05
2019-04-23T06:44:58.447Z,53.80
2019-04-23T06:47:37.403Z,53.64
2019-04-23T06:50:14.827Z,53.40
2019-04-23T06:52:43.874Z,53.19
2019-04-23T06:55:25.506Z,52.91
2019-04-23T06:57:48.084Z,52.70
2019-04-23T07:00:22.257Z,52.35
2019-04-23T07:02:54.215Z,52.04
2019-04-23T07:05:29.762Z,51.81
2019-04-23T07:07:58.343Z,51.43
2019-04-23T07:10:34.813Z,51.11
2019-04-23T07:13:08.239Z,50.83
2019-04-23T07:18:04.036Z,50.33
2019-04-23T07:20:40.291Z,49.80
2019-04-23T07:23:19.659Z,49.56
2019-04-23T07:25:49.936Z,49.06
2019-04-23T07:28:23.387Z,48.85
2019-04-23T07:30:51.577Z,48.52
2019-04-23T07:33:31.114Z,48.03
2019-04-23T07:35:51.919Z,47.63
2019-04-23T07:38:57.870Z,47.16
2019-04-23T07:41:38.054Z,47.14
2019-04-23T07:47:21.307Z,46.59
2019-04-23T07:50:08.047Z,46.23
2019-04-23T07:52:24.196Z,46.08
2019-04-23T07:55:02.377Z,45.83
2019-04-23T07:57:29.166Z,45.50
2019-04-23T08:00:00.960Z,44.80
2019-04-23T08:02:31.415Z,44.59
2019-04-23T08:05:11.249Z,44.07
2019-04-23T08:07:41.102Z,43.63
2019-04-23T08:12:43.787Z,43.51
2019-04-23T08:15:09.107Z,42.55
2019-04-23T08:17:34.690Z,40.25
2019-04-23T08:20:11.245Z,37.82
2019-04-23T08:22:47.499Z,36.59
2019-04-23T08:25:37.206Z,35.58
2019-04-23T08:28:13.646Z,34.84
2019-04-23T08:30:49.586Z,34.94
2019-04-23T08:33:15.765Z,35.90
2019-04-23T08:35:54.316Z,36.43
2019-04-23T08:38:26.119Z,36.25
2019-04-23T08:41:06.035Z,36.14
2019-04-23T08:43:42.723Z,36.20
2019-04-23T08:46:33.064Z,36.02
2019-04-23T08:49:05.982Z,35.83
2019-04-23T08:51:44.538Z,35.92
2019-04-23T08:54:08.724Z,33.70
2019-04-23T08:56:42.825Z,33.86
2019-04-23T08:59:08.234Z,31.02
2019-04-23T09:01:50.666Z,31.06
2019-04-23T09:04:09.338Z,30.19
2019-04-23T09:06:34.975Z,30.17
2019-04-23T09:09:13.184Z,29.47
2019-04-23T09:14:05.303Z,29.29
2019-04-23T09:16:54.452Z,29.52
2019-04-23T09:19:23.499Z,28.91
2019-04-23T09:22:01.980Z,28.63
2019-04-23T09:24:24.234Z,28.21
2019-04-23T09:26:59.007Z,28.02
2019-04-23T09:29:36.585Z,27.56
2019-04-23T09:38:04.129Z,27.18
2019-04-23T09:41:13.033Z,27.25
2019-04-23T09:43:31.584Z,27.14
2019-04-23T09:46:17.663Z,27.70
2019-04-23T09:48:50.964Z,27.41
2019-04-23T09:51:23.536Z,27.42
2019-04-23T09:53:58.014Z,27.00
2019-04-23T09:56:32.410Z,27.07
2019-04-23T09:59:10.935Z,26.36
2019-04-23T10:01:44.126Z,25.72
2019-04-23T10:03:53.382Z,25.12
2019-04-23T10:06:19.137Z,24.38
2019-04-23T10:08:51.389Z,24.30
2019-04-23T10:11:18.161Z,24.24
2019-04-23T10:13:48.497Z,23.83
2019-04-23T10:16:21.363Z,23.93
2019-04-23T10:18:50.996Z,23.89
2019-04-23T10:21:21.481Z,23.97
2019-04-23T10:23:52.762Z,23.95
2019-04-23T10:26:24.043Z,23.67
2019-04-23T10:29:02.125Z,24.16
2019-04-23T10:31:33.352Z,24.13
2019-04-23T10:34:04.416Z,23.86
2019-04-23T10:36:36.175Z,23.88
2019-04-23T10:39:15.512Z,23.90
2019-04-23T10:41:45.199Z,24.01
2019-04-23T10:44:29.136Z,23.83
2019-04-23T10:47:44.711Z,23.86
2019-04-23T10:50:39.986Z,23.80
2019-04-23T10:53:23.451Z,23.91
2019-04-23T10:55:46.860Z,24.13
2019-04-23T10:58:15.808Z,24.28
2019-04-23T11:00:48.917Z,24.17
2019-04-23T11:03:31.790Z,24.17
2019-04-23T11:05:59.079Z,24.43
2019-04-23T11:08:18.774Z,24.33
2019-04-23T11:10:50.337Z,24.32
2019-04-23T11:13:45.275Z,24.23
2019-04-23T11:16:44.736Z,24.25
2019-04-23T11:21:34.567Z,24.25
2019-04-23T11:23:50.185Z,23.73
2019-04-23T11:26:31.960Z,23.31
2019-04-23T11:28:51.990Z,23.18
2019-04-23T11:36:47.879Z,22.96
2019-04-23T11:39:16.752Z,23.17
2019-04-23T11:41:45.637Z,23.30
2019-04-23T11:49:26.624Z,23.49
2019-04-23T11:51:54.006Z,23.59
2019-04-23T11:54:17.514Z,23.60
2019-04-23T11:57:14.119Z,23.59
2019-04-23T11:59:31.951Z,23.80
2019-04-23T12:02:13.572Z,23.77
2019-04-23T12:08:20.628Z,23.44
2019-04-23T12:11:42.602Z,24.38
2019-04-23T12:14:24.220Z,24.14
2019-04-23T12:24:56.849Z,23.19
2019-04-23T12:27:08.151Z,23.99
2019-04-23T12:29:37.356Z,23.93
2019-04-23T12:37:45.012Z,23.94
2019-04-23T12:43:11.973Z,23.80
2019-04-23T12:48:15.623Z,23.52
2019-04-23T12:53:05.747Z,22.91
2019-04-23T12:58:03.824Z,23.07
2019-04-23T13:03:26.101Z,22.76
2019-04-23T13:05:34.461Z,22.90
2019-04-23T13:08:23.345Z,22.69
2019-04-23T13:10:39.928Z,22.53
2019-04-23T13:13:27.963Z,22.83
2019-04-23T13:18:17.590Z,22.81
2019-04-23T13:20:41.944Z,22.63
2019-04-23T13:23:22.308Z,22.22
2019-04-23T13:25:59.606Z,21.55
2019-04-23T13:28:38.763Z,21.78
2019-04-23T13:31:22.620Z,21.62
2019-04-23T13:43:47.933Z,20.82
2019-04-23T13:46:17.784Z,21.01
2019-04-23T13:48:47.039Z,20.61
2019-04-23T13:51:26.270Z,20.58
2019-04-23T13:53:51.341Z,19.76
2019-04-23T13:57:12.716Z,19.84
2019-04-23T13:59:09.616Z,20.07
2019-04-23T14:01:32.385Z,19.64
2019-04-23T14:04:24.498Z,19.39
2019-04-23T14:06:43.065Z,19.28
2019-04-23T14:09:19.946Z,19.02
2019-04-23T14:11:38.623Z,19.34
2019-04-23T14:14:34.454Z,19.36
2019-04-23T14:17:00.200Z,19.66
2019-04-23T14:19:30.183Z,19.64
2019-04-23T14:22:07.097Z,19.97
2019-04-23T14:24:45.805Z,20.23
2019-04-23T14:27:18.142Z,20.38
2019-04-23T14:32:16.004Z,19.99
2019-04-23T14:34:50.934Z,20.09
2019-04-23T14:37:14.888Z,19.55
2019-04-23T14:39:45.846Z,19.30
2019-04-23T14:45:08.075Z,18.35
2019-04-23T14:47:27.974Z,18.55
2019-04-23T14:50:29.320Z,18.54
2019-04-23T14:52:43.485Z,18.46
2019-04-23T14:55:40.311Z,18.59
2019-04-23T14:57:40.334Z,18.91
2019-04-23T15:00:15.609Z,18.85
2019-04-23T15:02:44.975Z,18.89
2019-04-23T15:07:42.206Z,19.03
2019-04-23T15:10:34.779Z,19.15
2019-04-23T15:12:54.010Z,19.01
2019-04-23T15:15:21.122Z,19.08
2019-04-23T15:20:51.787Z,19.19
2019-04-23T15:23:17.011Z,19.00
2019-04-23T15:28:06.841Z,19.23
2019-04-23T15:30:40.106Z,18.96
2019-04-23T15:33:19.837Z,18.88
2019-04-23T15:35:53.298Z,18.69
2019-04-23T15:40:45.665Z,18.66
2019-04-23T15:43:14.588Z,18.88
2019-04-23T15:45:52.523Z,18.59
2019-04-23T15:48:24.049Z,18.26
2019-04-23T15:51:10.091Z,18.25
2019-04-23T15:53:25.029Z,18.03
2019-04-23T15:56:13.731Z,18.19
2019-04-23T15:58:50.604Z,18.20
2019-04-23T16:03:28.991Z,18.52
2019-04-23T16:05:57.465Z,18.11
2019-04-23T16:11:39.501Z,18.02
2019-04-23T16:14:17.684Z,18.34
2019-04-23T16:16:46.210Z,18.25
2019-04-23T16:22:04.669Z,18.35
2019-04-23T16:24:26.410Z,18.18
2019-04-23T16:27:09.316Z,18.26
2019-04-23T16:30:32.567Z,18.53
2019-04-23T16:32:18.866Z,18.81
2019-04-23T16:34:36.586Z,18.67
2019-04-23T16:39:56.531Z,18.68
2019-04-23T16:42:24.850Z,18.82
2019-04-23T16:45:07.579Z,18.71
2019-04-23T16:47:33.213Z,18.62
2019-04-23T16:50:04.477Z,18.44
2019-04-23T16:52:26.198Z,18.51
2019-04-23T16:57:45.886Z,18.74
2019-04-23T17:00:24.481Z,18.94
2019-04-23T17:02:47.586Z,18.77
2019-04-23T17:05:18.021Z,19.04
2019-04-23T17:07:53.344Z,19.13
2019-04-23T17:10:39.684Z,19.29
2019-04-23T17:12:51.879Z,19.45
2019-04-23T17:15:27.491Z,19.38
2019-04-23T17:17:55.702Z,19.54
2019-04-23T17:20:33.865Z,19.52
2019-04-23T17:23:10.618Z,19.29
2019-04-23T17:25:26.446Z,19.24
2019-04-23T17:30:32.353Z,19.59
2019-04-23T17:33:24.057Z,19.59
2019-04-23T17:36:21.061Z,19.77
2019-04-23T17:39:01.369Z,19.72
2019-04-23T17:41:49.561Z,19.82
2019-04-23T17:44:20.392Z,19.75
2019-04-23T17:46:43.178Z,19.94
2019-04-23T17:52:03.135Z,19.99
2019-04-23T17:54:17.867Z,20.01
2019-04-23T17:57:05.509Z,20.27
2019-04-23T18:02:27.068Z,20.40
2019-04-23T18:04:34.750Z,20.40
2019-04-23T18:07:04.561Z,20.49
2019-04-23T18:09:57.038Z,20.38
2019-04-23T18:12:13.460Z,20.57
2019-04-23T18:14:39.253Z,20.63
2019-04-23T18:17:20.823Z,20.81
2019-04-23T18:20:05.305Z,20.96
2019-04-23T18:22:42.205Z,21.05
2019-04-23T18:25:25.842Z,21.17
2019-04-23T18:28:08.887Z,21.28
2019-04-23T18:31:00.641Z,21.43
2019-04-23T18:36:05.329Z,21.72
2019-04-23T18:38:46.629Z,21.83
2019-04-23T18:43:44.679Z,22.17
2019-04-23T18:48:50.495Z,22.45
2019-04-23T18:51:42.174Z,22.54
2019-04-23T18:56:44.681Z,22.75
2019-04-23T18:59:02.420Z,22.82
2019-04-23T19:01:31.071Z,22.98
2019-04-23T19:04:30.568Z,23.09
2019-04-23T19:06:51.298Z,23.19
2019-04-23T19:13:07.186Z,23.27
2019-04-23T19:23:27.306Z,23.66
2019-04-23T19:28:25.628Z,23.89
2019-04-23T19:31:07.549Z,23.98
2019-04-23T19:33:45.384Z,24.07
2019-04-23T19:36:26.006Z,24.14
2019-04-23T19:38:47.385Z,24.25
2019-04-23T19:41:19.455Z,24.36
2019-04-23T19:43:55.576Z,24.42
2019-04-23T19:46:39.748Z,24.51
2019-04-23T19:49:05.767Z,24.53
2019-04-23T19:51:38.979Z,24.67
2019-04-23T19:54:09.527Z,24.67
2019-04-23T19:56:43.176Z,24.73
2019-04-23T19:59:04.946Z,24.84
2019-04-23T20:01:39.963Z,24.81
2019-04-23T20:04:04.463Z,24.85
2019-04-23T20:07:06.174Z,24.91
2019-04-23T20:09:38.393Z,24.99
2019-04-23T20:11:54.850Z,25.04
2019-04-23T20:14:29.590Z,25.12
2019-04-23T20:17:21.371Z,25.08
2019-04-23T20:19:37.690Z,25.07
2019-04-23T20:24:52.603Z,25.21
2019-04-23T20:27:11.851Z,25.28
2019-04-23T20:35:11.321Z,25.43
2019-04-23T20:38:17.281Z,25.55
2019-04-23T20:40:25.774Z,25.59
2019-04-23T20:45:20.339Z,25.72
2019-04-23T20:50:27.646Z,25.81
2019-04-23T20:52:59.840Z,25.74
2019-04-23T21:02:29.999Z,25.96
2019-04-23T21:05:03.557Z,25.96
2019-04-23T21:07:40.611Z,25.98
2019-04-23T21:10:08.933Z,26.02
2019-04-23T21:15:10.204Z,26.16
2019-04-23T21:17:47.511Z,26.21
2019-04-23T21:22:50.401Z,26.31
2019-04-23T21:25:14.832Z,26.36
2019-04-23T21:28:04.307Z,26.39
2019-04-23T21:38:58.560Z,26.63
2019-04-23T21:41:33.305Z,26.71
2019-04-23T21:46:38.252Z,26.80
2019-04-23T21:54:14.957Z,27.06
2019-04-23T21:56:37.138Z,27.17
2019-04-23T22:01:44.939Z,27.22
2019-04-23T22:04:33.142Z,27.32
2019-04-23T22:06:47.776Z,27.45
2019-04-23T22:09:21.849Z,27.54
2019-04-23T22:14:29.085Z,27.71
2019-04-23T22:19:45.371Z,27.90
2019-04-23T22:22:07.726Z,27.89
2019-04-23T22:24:24.889Z,27.89
2019-04-23T22:26:58.182Z,27.87
2019-04-23T22:31:53.714Z,27.99
2019-04-23T22:34:40.303Z,28.03
2019-04-23T22:37:23.554Z,28.04
2019-04-23T22:39:45.811Z,28.15
2019-04-23T22:47:07.127Z,28.31
2019-04-23T22:50:02.201Z,28.36
2019-04-23T22:52:33.881Z,28.44
2019-04-23T22:58:08.068Z,28.70
2019-04-23T23:00:14.359Z,28.75
2019-04-23T23:02:59.513Z,28.81
2019-04-23T23:08:07.851Z,29.07
2019-04-23T23:10:44.198Z,29.18
2019-04-23T23:13:13.807Z,29.22
2019-04-23T23:15:49.343Z,29.44
2019-04-23T23:18:17.950Z,29.34
2019-04-23T23:20:55.338Z,29.42
2019-04-23T23:25:55.415Z,29.56
2019-04-23T23:28:31.446Z,29.60
2019-04-23T23:31:04.099Z,29.60
2019-04-23T23:33:30.224Z,29.70
2019-04-23T23:41:11.383Z,29.95
2019-04-23T23:43:54.928Z,30.03
2019-04-23T23:48:46.040Z,30.11
2019-04-23T23:51:19.050Z,30.16
2019-04-23T23:53:58.735Z,30.22
2019-04-23T23:56:15.834Z,30.18
2019-04-23T23:58:56.963Z,30.33
